Time;durP1;ratioP1;P1;durP2;ratioP2;P2;SDS_P1;SDS_P2;PMS_P1;PMS_P2;Temp;Humidity;BMP_temperature;BMP_pressure;BME280_temperature;BME280_humidity;BME280_pressure;Samples;Min_cycle;Max_cycle;Signal;HPM_P1;HPM_P2
2022/09/10 00:02:18;;;;;;;;;;;14.30;99.90;;;;;;5049837;28;19956;-68
2022/09/10 00:04:43;;;;;;;;;;;14.30;99.90;;;;;;5049959;28;19929;-67
2022/09/10 00:07:09;;;;;;;;;;;14.30;99.90;;;;;;5051266;28;20028;-67
2022/09/10 00:09:35;;;;;;;;;;;14.30;99.90;;;;;;5052140;28;19925;-67
2022/09/10 00:12:00;;;;;;;;;;;14.30;99.90;;;;;;5050746;28;19928;-67
2022/09/10 00:14:26;;;;;;;;;;;14.40;99.90;;;;;;5050374;28;20309;-68
2022/09/10 00:16:51;;;;;;;;;;;14.40;99.90;;;;;;5030379;28;19921;-67
2022/09/10 00:19:18;;;;;;;;;;;14.50;99.90;;;;;;5046956;28;19968;-67
2022/09/10 00:21:43;;;;;;;;;;;14.50;99.90;;;;;;5039808;28;19925;-67
2022/09/10 00:24:09;;;;;;;;;;;14.50;99.90;;;;;;5040020;28;19932;-67
2022/09/10 00:26:38;;;;;;;;;;;14.60;99.90;;;;;;5055131;28;19925;-67
2022/09/10 00:29:05;;;;;;;;;;;14.60;99.90;;;;;;5030732;28;19928;-67
2022/09/10 00:31:32;;;;;;;;;;;14.60;99.90;;;;;;5034799;28;19947;-67
2022/09/10 00:33:58;;;;;;;;;;;14.70;99.90;;;;;;5050489;28;19921;-67
2022/09/10 00:36:29;;;;;;;;;;;14.70;99.90;;;;;;5032830;28;19925;-67
2022/09/10 00:38:56;;;;;;;;;;;14.80;99.90;;;;;;5044332;28;19929;-67
2022/09/10 00:41:23;;;;;;;;;;;14.70;99.90;;;;;;5050851;28;19999;-68
2022/09/10 00:43:51;;;;;;;;;;;14.80;99.90;;;;;;5050915;28;19928;-67
2022/09/10 00:46:38;;;;;;;;;;;14.80;99.90;;;;;;5049738;28;19929;-67
2022/09/10 00:49:24;;;;;;;;;;;14.90;99.90;;;;;;5050967;28;19921;-67
2022/09/10 00:51:51;;;;;;;;;;;14.90;99.90;;;;;;5042630;28;19920;-67
2022/09/10 00:54:19;;;;;;;;;;;14.90;99.90;;;;;;5053108;28;20012;-67
2022/09/10 00:56:45;;;;;;;;;;;14.90;99.90;;;;;;5037615;28;19932;-67
2022/09/10 00:59:12;;;;;;;;;;;14.90;99.90;;;;;;5040844;28;19967;-67
2022/09/10 01:01:38;;;;;;;;;;;15.00;99.90;;;;;;5047027;28;19925;-67
2022/09/10 01:04:05;;;;;;;;;;;14.90;99.90;;;;;;5045116;28;19924;-67
2022/09/10 01:06:31;;;;;;;;;;;15.00;99.90;;;;;;5051608;28;19924;-67
2022/09/10 01:08:57;;;;;;;;;;;15.00;99.90;;;;;;5034309;28;19929;-67
2022/09/10 01:11:36;;;;;;;;;;;15.00;99.90;;;;;;5054381;28;19921;-67
2022/09/10 01:14:08;;;;;;;;;;;15.10;99.90;;;;;;5052096;28;20078;-67
2022/09/10 01:16:34;;;;;;;;;;;15.10;99.90;;;;;;5054448;28;19921;-67
2022/09/10 01:19:08;;;;;;;;;;;15.10;99.90;;;;;;5055068;28;19973;-67
2022/09/10 01:21:54;;;;;;;;;;;15.10;99.90;;;;;;5052771;28;19924;-68
2022/09/10 01:24:20;;;;;;;;;;;15.10;99.90;;;;;;5054233;28;20367;-67
2022/09/10 01:26:54;;;;;;;;;;;15.20;99.90;;;;;;5041937;28;19925;-67
2022/09/10 01:29:25;;;;;;;;;;;15.20;99.90;;;;;;5034491;28;20371;-68
2022/09/10 01:31:59;;;;;;;;;;;15.20;99.90;;;;;;5043633;28;19933;-67
2022/09/10 01:34:30;;;;;;;;;;;15.20;99.90;;;;;;5034700;28;19921;-67
2022/09/10 01:37:02;;;;;;;;;;;15.20;99.90;;;;;;5054149;28;19925;-67
2022/09/10 01:39:28;;;;;;;;;;;15.20;99.90;;;;;;5052179;28;19921;-67
2022/09/10 01:41:53;;;;;;;;;;;15.20;99.90;;;;;;5054612;28;19964;-68
2022/09/10 01:44:38;;;;;;;;;;;15.30;99.90;;;;;;5051104;28;19978;-67
2022/09/10 01:47:08;;;;;;;;;;;15.30;99.90;;;;;;5034657;28;19928;-67
2022/09/10 01:49:39;;;;;;;;;;;15.30;99.90;;;;;;5034634;28;20370;-67
2022/09/10 01:52:17;;;;;;;;;;;15.30;99.90;;;;;;5016903;28;20322;-67
2022/09/10 01:54:55;;;;;;;;;;;15.30;99.90;;;;;;5034400;28;20354;-67
2022/09/10 01:57:34;;;;;;;;;;;15.40;99.90;;;;;;5034445;28;19925;-67
2022/09/10 02:00:09;;;;;;;;;;;15.40;99.90;;;;;;5040785;28;20462;-67
2022/09/10 02:02:44;;;;;;;;;;;15.40;99.90;;;;;;5038196;28;20445;-67
2022/09/10 02:05:10;;;;;;;;;;;15.40;99.90;;;;;;5033001;28;19925;-68
2022/09/10 02:07:38;;;;;;;;;;;15.40;99.90;;;;;;5050812;28;19968;-67
2022/09/10 02:10:05;;;;;;;;;;;15.40;99.90;;;;;;5053107;28;20003;-67
2022/09/10 02:12:31;;;;;;;;;;;15.40;99.90;;;;;;5052720;28;19921;-67
2022/09/10 02:14:56;;;;;;;;;;;15.40;99.90;;;;;;5052743;28;20306;-68
2022/09/10 02:17:23;;;;;;;;;;;15.40;99.90;;;;;;5051980;28;19927;-66
2022/09/10 02:19:52;;;;;;;;;;;15.40;99.90;;;;;;5052558;28;19974;-67
2022/09/10 02:22:19;;;;;;;;;;;15.40;99.90;;;;;;5051834;28;20023;-68
2022/09/10 02:24:44;;;;;;;;;;;15.50;99.90;;;;;;5051978;28;19932;-67
2022/09/10 02:27:10;;;;;;;;;;;15.40;99.90;;;;;;5053118;28;19981;-67
2022/09/10 02:29:37;;;;;;;;;;;15.40;99.90;;;;;;5051513;28;20011;-68
2022/09/10 02:32:03;;;;;;;;;;;15.40;99.90;;;;;;5052073;28;19925;-67
2022/09/10 02:34:29;;;;;;;;;;;15.50;99.90;;;;;;5050063;28;19935;-67
2022/09/10 02:36:56;;;;;;;;;;;15.50;99.90;;;;;;5053208;28;19920;-67
2022/09/10 02:39:24;;;;;;;;;;;15.40;99.90;;;;;;5051773;28;19924;-67
2022/09/10 02:41:50;;;;;;;;;;;15.40;99.90;;;;;;5051439;28;19921;-67
2022/09/10 02:44:15;;;;;;;;;;;15.40;99.90;;;;;;5051269;28;19978;-67
2022/09/10 02:46:41;;;;;;;;;;;15.50;99.90;;;;;;5052592;28;20329;-67
2022/09/10 02:49:08;;;;;;;;;;;15.50;99.90;;;;;;5051918;28;19944;-67
2022/09/10 02:51:33;;;;;;;;;;;15.50;99.90;;;;;;5033975;28;20022;-67
2022/09/10 02:53:59;;;;;;;;;;;15.40;99.90;;;;;;5051843;28;20371;-68
2022/09/10 02:56:24;;;;;;;;;;;15.50;99.90;;;;;;5053289;28;19925;-67
2022/09/10 02:58:49;;;;;;;;;;;15.50;99.90;;;;;;5051991;28;19921;-67
2022/09/10 03:01:18;;;;;;;;;;;15.50;99.90;;;;;;5053063;28;19924;-67
2022/09/10 03:03:47;;;;;;;;;;;15.50;99.90;;;;;;5052253;28;19925;-67
2022/09/10 03:06:13;;;;;;;;;;;15.50;99.90;;;;;;5051759;28;19929;-67
2022/09/10 03:08:38;;;;;;;;;;;15.50;99.90;;;;;;5051752;28;20245;-67
2022/09/10 03:11:04;;;;;;;;;;;15.50;99.90;;;;;;5051567;28;20012;-67
2022/09/10 03:13:30;;;;;;;;;;;15.40;99.90;;;;;;5051671;28;19920;-67
2022/09/10 03:15:57;;;;;;;;;;;15.40;99.90;;;;;;5052938;28;20557;-68
2022/09/10 03:18:23;;;;;;;;;;;15.30;99.90;;;;;;5036217;28;19991;-67
2022/09/10 03:20:48;;;;;;;;;;;15.30;99.90;;;;;;5048043;28;20363;-67
2022/09/10 03:23:14;;;;;;;;;;;15.20;99.90;;;;;;5032506;28;20992;-67
2022/09/10 03:25:40;;;;;;;;;;;15.20;99.90;;;;;;5032960;28;19925;-67
2022/09/10 03:28:05;;;;;;;;;;;15.20;99.90;;;;;;5032835;28;19935;-67
2022/09/10 03:30:31;;;;;;;;;;;15.20;99.90;;;;;;5050729;28;19924;-67
2022/09/10 03:32:57;;;;;;;;;;;15.30;99.90;;;;;;5034741;28;19921;-67
2022/09/10 03:35:22;;;;;;;;;;;15.30;99.90;;;;;;5052479;28;19956;-67
2022/09/10 03:37:48;;;;;;;;;;;15.30;99.90;;;;;;5047499;28;19929;-67
2022/09/10 03:40:14;;;;;;;;;;;15.30;99.90;;;;;;5050206;28;19967;-67
2022/09/10 03:42:41;;;;;;;;;;;15.40;99.90;;;;;;5052319;28;19994;-68
2022/09/10 03:45:07;;;;;;;;;;;15.40;99.90;;;;;;5051199;28;19932;-68
2022/09/10 03:47:33;;;;;;;;;;;15.40;99.90;;;;;;5051066;28;19928;-67
2022/09/10 03:49:58;;;;;;;;;;;15.40;99.90;;;;;;5052431;28;20489;-67
2022/09/10 03:52:25;;;;;;;;;;;15.40;99.90;;;;;;5052558;28;20329;-68
2022/09/10 03:54:51;;;;;;;;;;;15.40;99.90;;;;;;5051208;28;19921;-67
2022/09/10 03:57:16;;;;;;;;;;;15.40;99.90;;;;;;5052057;28;20013;-67
2022/09/10 03:59:41;;;;;;;;;;;15.40;99.90;;;;;;5051411;28;19975;-68
2022/09/10 04:02:10;;;;;;;;;;;15.40;99.90;;;;;;5050933;28;20027;-68
2022/09/10 04:04:38;;;;;;;;;;;15.30;99.90;;;;;;5052013;28;19932;-66
2022/09/10 04:07:04;;;;;;;;;;;15.30;99.90;;;;;;5051347;28;19931;-67
2022/09/10 04:09:31;;;;;;;;;;;15.40;99.90;;;;;;5031037;28;19921;-67
2022/09/10 04:11:57;;;;;;;;;;;15.40;99.90;;;;;;5041821;28;20386;-67
2022/09/10 04:14:23;;;;;;;;;;;15.30;99.90;;;;;;5050891;28;19921;-67
2022/09/10 04:16:49;;;;;;;;;;;15.30;99.90;;;;;;5052148;28;19920;-67
2022/09/10 04:19:14;;;;;;;;;;;15.40;99.90;;;;;;5052004;28;20007;-67
2022/09/10 04:21:40;;;;;;;;;;;15.30;99.90;;;;;;5052079;28;19924;-68
2022/09/10 04:24:08;;;;;;;;;;;15.30;99.90;;;;;;5051829;28;19929;-67
2022/09/10 04:26:34;;;;;;;;;;;15.30;99.90;;;;;;5054765;28;19928;-67
2022/09/10 04:28:59;;;;;;;;;;;15.40;99.90;;;;;;5039076;28;19975;-68
2022/09/10 04:31:25;;;;;;;;;;;15.40;99.90;;;;;;5036098;28;19925;-67
2022/09/10 04:33:50;;;;;;;;;;;15.30;99.90;;;;;;5035917;28;19921;-68
2022/09/10 04:36:16;;;;;;;;;;;15.40;99.90;;;;;;5044775;28;19921;-68
2022/09/10 04:38:42;;;;;;;;;;;15.40;99.90;;;;;;5054859;28;20620;-67
2022/09/10 04:41:08;;;;;;;;;;;15.40;99.90;;;;;;5054798;28;19978;-67
2022/09/10 04:43:34;;;;;;;;;;;15.40;99.90;;;;;;5053356;28;19925;-67
2022/09/10 04:45:59;;;;;;;;;;;15.40;99.90;;;;;;5055611;28;19940;-67
2022/09/10 04:48:25;;;;;;;;;;;15.40;99.90;;;;;;5055572;28;20389;-68
2022/09/10 04:50:51;;;;;;;;;;;15.40;99.90;;;;;;5055790;28;19928;-68
2022/09/10 04:53:16;;;;;;;;;;;15.40;99.90;;;;;;5055561;28;19925;-68
2022/09/10 04:55:43;;;;;;;;;;;15.40;99.90;;;;;;5053718;28;19935;-67
2022/09/10 04:58:09;;;;;;;;;;;15.40;99.90;;;;;;5054172;28;19925;-67
2022/09/10 05:00:34;;;;;;;;;;;15.30;99.90;;;;;;5034292;28;19925;-68
2022/09/10 05:03:00;;;;;;;;;;;15.30;99.90;;;;;;5034117;28;19960;-68
2022/09/10 05:05:27;;;;;;;;;;;15.30;99.90;;;;;;5035166;28;19955;-67
2022/09/10 05:07:52;;;;;;;;;;;15.30;99.90;;;;;;5037467;28;20014;-68
2022/09/10 05:10:20;;;;;;;;;;;15.20;99.90;;;;;;5054948;28;19925;-67
2022/09/10 05:12:47;;;;;;;;;;;15.10;99.90;;;;;;5052275;28;19924;-67
2022/09/10 05:15:12;;;;;;;;;;;15.10;99.90;;;;;;5042891;28;19976;-67
2022/09/10 05:17:38;;;;;;;;;;;15.10;99.90;;;;;;5033204;28;19971;-68
2022/09/10 05:20:06;;;;;;;;;;;15.10;99.90;;;;;;5036852;28;19925;-67
2022/09/10 05:22:33;;;;;;;;;;;15.10;99.90;;;;;;5054279;28;19920;-67
2022/09/10 05:24:59;;;;;;;;;;;15.10;99.90;;;;;;5051800;28;19956;-67
2022/09/10 05:27:24;;;;;;;;;;;15.10;99.90;;;;;;5052816;28;20286;-67
2022/09/10 05:29:50;;;;;;;;;;;15.10;99.90;;;;;;5053019;28;19920;-67
2022/09/10 05:32:17;;;;;;;;;;;15.10;99.90;;;;;;5024028;28;19924;-67
2022/09/10 05:34:44;;;;;;;;;;;15.10;99.90;;;;;;5033889;28;19929;-68
2022/09/10 05:37:10;;;;;;;;;;;15.20;99.90;;;;;;5032043;28;20406;-67
2022/09/10 05:39:36;;;;;;;;;;;15.20;99.90;;;;;;5050754;28;19962;-67
2022/09/10 05:42:02;;;;;;;;;;;15.20;99.90;;;;;;5053408;28;19921;-67
2022/09/10 05:44:28;;;;;;;;;;;15.30;99.90;;;;;;5053351;28;19924;-67
2022/09/10 05:46:53;;;;;;;;;;;15.30;99.90;;;;;;5051862;28;20396;-68
2022/09/10 05:49:19;;;;;;;;;;;15.30;99.90;;;;;;5053139;28;20354;-67
2022/09/10 05:51:44;;;;;;;;;;;15.30;99.90;;;;;;5053871;28;19927;-67
2022/09/10 05:54:11;;;;;;;;;;;15.40;99.90;;;;;;5054137;28;20302;-67
2022/09/10 05:56:37;;;;;;;;;;;15.40;99.90;;;;;;5051226;28;19929;-67
2022/09/10 05:59:05;;;;;;;;;;;15.40;99.90;;;;;;5053227;28;19978;-67
2022/09/10 06:01:30;;;;;;;;;;;15.40;99.90;;;;;;5048501;28;20409;-67
2022/09/10 06:03:57;;;;;;;;;;;15.40;99.90;;;;;;5054292;28;19928;-67
2022/09/10 06:06:25;;;;;;;;;;;15.40;99.90;;;;;;5052896;28;19966;-68
2022/09/10 06:08:52;;;;;;;;;;;15.50;99.90;;;;;;5055041;22;20041;-67
2022/09/10 06:11:17;;;;;;;;;;;15.50;99.90;;;;;;5016967;28;19921;-67
2022/09/10 06:13:43;;;;;;;;;;;15.50;99.90;;;;;;4994632;28;19925;-67
2022/09/10 06:16:08;;;;;;;;;;;15.50;99.90;;;;;;5014088;28;19929;-67
2022/09/10 06:18:34;;;;;;;;;;;15.50;99.90;;;;;;5029423;28;19975;-67
2022/09/10 06:21:14;;;;;;;;;;;15.50;99.90;;;;;;5013233;28;19921;-67
2022/09/10 06:23:39;;;;;;;;;;;15.50;99.90;;;;;;5013454;28;20371;-68
2022/09/10 06:26:07;;;;;;;;;;;15.50;99.90;;;;;;5022045;28;19930;-67
2022/09/10 06:28:33;;;;;;;;;;;15.50;99.90;;;;;;5032778;28;19928;-67
2022/09/10 06:30:59;;;;;;;;;;;15.50;99.90;;;;;;5032483;28;19944;-68
2022/09/10 06:33:24;;;;;;;;;;;15.50;99.90;;;;;;5014996;28;19922;-67
2022/09/10 06:35:57;;;;;;;;;;;15.50;99.90;;;;;;5009056;28;19925;-67
2022/09/10 06:38:23;;;;;;;;;;;15.50;99.90;;;;;;5011878;28;20325;-68
2022/09/10 06:40:49;;;;;;;;;;;15.50;99.90;;;;;;4995302;28;20015;-68
2022/09/10 06:43:16;;;;;;;;;;;15.60;99.90;;;;;;5023813;28;19933;-67
2022/09/10 06:45:41;;;;;;;;;;;15.60;99.90;;;;;;5032730;28;19928;-67
2022/09/10 06:48:06;;;;;;;;;;;15.70;99.90;;;;;;5031801;28;19925;-67
2022/09/10 06:50:32;;;;;;;;;;;15.70;99.90;;;;;;5033369;28;19921;-67
2022/09/10 06:52:57;;;;;;;;;;;15.70;99.90;;;;;;5001499;28;19964;-68
2022/09/10 06:55:23;;;;;;;;;;;15.70;99.90;;;;;;4995810;28;20312;-67
2022/09/10 06:57:48;;;;;;;;;;;15.70;99.90;;;;;;5000678;28;19925;-68
2022/09/10 07:00:14;;;;;;;;;;;15.70;99.90;;;;;;5009270;28;19979;-67
2022/09/10 07:02:39;;;;;;;;;;;15.70;99.90;;;;;;5028416;28;19969;-67
2022/09/10 07:05:05;;;;;;;;;;;15.70;99.90;;;;;;5015198;28;19921;-68
2022/09/10 07:07:30;;;;;;;;;;;15.70;99.90;;;;;;5032980;28;20301;-67
2022/09/10 07:09:56;;;;;;;;;;;15.70;99.90;;;;;;5014842;28;19988;-67
2022/09/10 07:12:21;;;;;;;;;;;15.80;99.90;;;;;;5030459;28;20363;-67
2022/09/10 07:14:47;;;;;;;;;;;15.80;99.90;;;;;;5032107;28;19971;-67
2022/09/10 07:17:12;;;;;;;;;;;15.90;99.90;;;;;;5027859;28;19925;-67
2022/09/10 07:19:38;;;;;;;;;;;15.90;99.90;;;;;;5012867;28;20433;-67
2022/09/10 07:22:04;;;;;;;;;;;15.90;99.90;;;;;;5032596;28;19994;-67
2022/09/10 07:24:29;;;;;;;;;;;15.90;99.90;;;;;;5030822;28;20370;-67
2022/09/10 07:26:55;;;;;;;;;;;15.90;99.90;;;;;;5015205;28;19963;-67
2022/09/10 07:29:21;;;;;;;;;;;15.90;99.90;;;;;;5026909;28;19927;-68
2022/09/10 07:31:47;;;;;;;;;;;15.90;99.90;;;;;;5017269;28;20549;-67
2022/09/10 07:34:13;;;;;;;;;;;15.90;99.90;;;;;;5012233;28;20012;-68
2022/09/10 07:36:38;;;;;;;;;;;15.90;99.90;;;;;;5012573;28;19940;-68
2022/09/10 07:39:04;;;;;;;;;;;15.90;99.90;;;;;;5031282;28;20310;-68
2022/09/10 07:41:32;;;;;;;;;;;15.90;99.90;;;;;;5030651;28;19995;-68
2022/09/10 07:43:57;;;;;;;;;;;15.90;99.90;;;;;;5028553;28;19925;-67
2022/09/10 07:46:24;;;;;;;;;;;16.00;99.90;;;;;;5030109;28;19927;-67
2022/09/10 07:48:55;;;;;;;;;;;16.10;99.90;;;;;;5033862;28;19948;-68
2022/09/10 07:51:21;;;;;;;;;;;16.20;99.90;;;;;;5029490;28;19932;-69
2022/09/10 07:53:50;;;;;;;;;;;16.30;99.90;;;;;;5030325;28;20394;-68
2022/09/10 07:56:15;;;;;;;;;;;16.20;99.90;;;;;;5008967;28;19987;-69
2022/09/10 07:58:41;;;;;;;;;;;16.20;99.90;;;;;;5013027;28;19925;-68
2022/09/10 08:01:11;;;;;;;;;;;16.20;99.90;;;;;;5011015;28;19929;-68
2022/09/10 08:03:37;;;;;;;;;;;16.30;99.90;;;;;;5011725;28;20147;-68
2022/09/10 08:06:03;;;;;;;;;;;16.30;99.90;;;;;;5029885;28;19922;-68
2022/09/10 08:08:33;;;;;;;;;;;16.30;99.90;;;;;;5031316;28;19998;-68
2022/09/10 08:11:05;;;;;;;;;;;16.30;99.90;;;;;;5014368;28;19966;-67
2022/09/10 08:13:33;;;;;;;;;;;16.40;99.90;;;;;;5012130;28;19929;-68
2022/09/10 08:15:59;;;;;;;;;;;16.40;99.90;;;;;;5032107;28;19959;-68
2022/09/10 08:18:24;;;;;;;;;;;16.60;99.90;;;;;;4998183;28;20347;-67
2022/09/10 08:20:53;;;;;;;;;;;16.70;99.90;;;;;;5029837;28;19925;-67
2022/09/10 08:23:19;;;;;;;;;;;16.70;99.90;;;;;;5028333;28;19941;-68
2022/09/10 08:25:50;;;;;;;;;;;16.70;99.90;;;;;;5014609;28;19944;-69
2022/09/10 08:28:18;;;;;;;;;;;16.80;99.90;;;;;;5014305;28;19946;-68
2022/09/10 08:31:00;;;;;;;;;;;16.90;99.90;;;;;;4997560;28;19921;-68
2022/09/10 08:33:30;;;;;;;;;;;16.90;99.90;;;;;;5014259;28;19975;-69
2022/09/10 08:35:59;;;;;;;;;;;17.00;99.90;;;;;;4997315;28;19925;-69
2022/09/10 08:38:25;;;;;;;;;;;17.10;99.90;;;;;;5031981;28;19976;-67
2022/09/10 08:40:53;;;;;;;;;;;17.30;99.90;;;;;;5030251;28;20522;-69
2022/09/10 08:43:22;;;;;;;;;;;17.50;99.90;;;;;;5022096;28;19973;-68
2022/09/10 08:45:49;;;;;;;;;;;17.50;99.90;;;;;;5016875;28;19921;-68
2022/09/10 08:48:21;;;;;;;;;;;17.60;99.90;;;;;;5013956;28;19921;-68
2022/09/10 08:50:54;;;;;;;;;;;17.60;99.90;;;;;;5031831;28;20298;-69
2022/09/10 08:53:24;;;;;;;;;;;17.60;99.90;;;;;;5027578;28;20008;-68
2022/09/10 08:55:51;;;;;;;;;;;17.80;99.90;;;;;;5014269;28;20420;-68
2022/09/10 08:58:24;;;;;;;;;;;17.90;99.90;;;;;;5022352;28;20535;-68
2022/09/10 09:00:52;;;;;;;;;;;18.00;99.90;;;;;;5028919;28;20363;-69
2022/09/10 09:03:28;;;;;;;;;;;18.10;99.90;;;;;;5011326;28;19929;-70
2022/09/10 09:05:56;;;;;;;;;;;18.20;99.90;;;;;;5012333;28;19965;-69
2022/09/10 09:08:26;;;;;;;;;;;18.20;99.90;;;;;;5013639;28;19932;-69
2022/09/10 09:11:00;;;;;;;;;;;18.30;99.90;;;;;;5012294;28;19974;-69
2022/09/10 09:13:38;;;;;;;;;;;18.30;99.90;;;;;;5012328;28;20002;-70
2022/09/10 09:16:13;;;;;;;;;;;18.40;99.90;;;;;;5011938;28;19951;-69
2022/09/10 09:18:52;;;;;;;;;;;18.50;99.90;;;;;;5016226;28;19925;-69
2022/09/10 09:21:44;;;;;;;;;;;18.70;99.90;;;;;;5016938;28;19925;-69
2022/09/10 09:24:29;;;;;;;;;;;18.80;99.90;;;;;;5016983;28;20466;-69
2022/09/10 09:27:00;;;;;;;;;;;19.10;99.90;;;;;;5016779;28;20283;-69
2022/09/10 09:29:29;;;;;;;;;;;18.90;99.90;;;;;;5016977;28;19979;-69
2022/09/10 09:31:59;;;;;;;;;;;19.00;99.90;;;;;;5016809;28;19928;-69
2022/09/10 09:34:54;;;;;;;;;;;19.00;99.90;;;;;;4998384;28;19925;-69
2022/09/10 09:37:22;;;;;;;;;;;19.00;99.90;;;;;;4961307;28;19922;-69
2022/09/10 09:39:52;;;;;;;;;;;19.10;99.90;;;;;;4997438;28;20020;-69
2022/09/10 09:42:24;;;;;;;;;;;19.10;99.90;;;;;;4996837;28;19929;-69
2022/09/10 09:44:50;;;;;;;;;;;19.10;99.90;;;;;;4996949;28;19975;-69
2022/09/10 09:47:15;;;;;;;;;;;19.10;99.90;;;;;;5009837;28;19925;-69
2022/09/10 09:49:41;;;;;;;;;;;19.20;99.90;;;;;;5016839;28;19932;-69
2022/09/10 09:52:20;;;;;;;;;;;19.20;99.90;;;;;;5016277;28;20004;-69
2022/09/10 09:54:48;;;;;;;;;;;19.10;99.90;;;;;;5016668;28;19921;-69
2022/09/10 09:57:19;;;;;;;;;;;19.10;99.90;;;;;;5032778;28;19925;-69
2022/09/10 09:59:45;;;;;;;;;;;19.10;99.90;;;;;;5016193;28;19928;-69
2022/09/10 10:02:18;;;;;;;;;;;19.10;99.90;;;;;;5024953;28;20049;-69
2022/09/10 10:05:03;;;;;;;;;;;19.20;99.90;;;;;;4980379;28;19957;-69
2022/09/10 10:07:30;;;;;;;;;;;19.30;99.90;;;;;;4996520;28;19929;-69
2022/09/10 10:09:57;;;;;;;;;;;19.50;99.90;;;;;;5012761;28;19925;-69
2022/09/10 10:12:22;;;;;;;;;;;19.60;99.90;;;;;;4996654;28;20338;-69
2022/09/10 10:14:48;;;;;;;;;;;19.60;99.90;;;;;;4996540;28;20004;-69
2022/09/10 10:17:23;;;;;;;;;;;19.60;99.90;;;;;;4996292;28;19921;-69
2022/09/10 10:20:15;;;;;;;;;;;19.60;99.90;;;;;;4996290;28;20294;-69
2022/09/10 10:22:41;;;;;;;;;;;19.80;99.90;;;;;;4993103;28;19925;-69
2022/09/10 10:25:25;;;;;;;;;;;19.80;99.90;;;;;;5012576;28;19936;-69
2022/09/10 10:27:53;;;;;;;;;;;19.80;99.90;;;;;;4995986;28;19961;-69
2022/09/10 10:30:20;;;;;;;;;;;20.00;99.90;;;;;;4995964;28;19925;-69
2022/09/10 10:32:45;;;;;;;;;;;20.20;99.90;;;;;;4995819;28;19922;-69
2022/09/10 10:35:19;;;;;;;;;;;20.20;99.90;;;;;;5013729;28;19932;-69
2022/09/10 10:37:59;;;;;;;;;;;20.10;99.90;;;;;;5012623;28;19953;-69
2022/09/10 10:40:30;;;;;;;;;;;20.00;99.90;;;;;;5025223;28;19921;-69
2022/09/10 10:43:14;;;;;;;;;;;20.30;99.90;;;;;;5015094;28;19925;-69
2022/09/10 10:45:59;;;;;;;;;;;20.30;99.90;;;;;;5012575;28;19973;-69
2022/09/10 10:48:34;;;;;;;;;;;20.40;99.90;;;;;;4995304;28;19921;-69
2022/09/10 10:51:10;;;;;;;;;;;20.10;99.90;;;;;;5020855;28;19929;-69
2022/09/10 10:53:43;;;;;;;;;;;20.20;99.90;;;;;;5029836;28;19936;-69
2022/09/10 10:56:16;;;;;;;;;;;20.00;99.90;;;;;;5033066;28;19921;-69
2022/09/10 10:58:47;;;;;;;;;;;19.90;99.90;;;;;;4998746;28;19952;-69
2022/09/10 11:01:21;;;;;;;;;;;19.90;99.90;;;;;;5011993;28;19925;-69
2022/09/10 11:04:00;;;;;;;;;;;20.00;99.90;;;;;;5032891;28;19933;-69
2022/09/10 11:06:30;;;;;;;;;;;20.10;99.90;;;;;;5015458;28;19921;-69
2022/09/10 11:09:00;;;;;;;;;;;20.30;99.90;;;;;;5014740;28;19925;-69
2022/09/10 11:11:44;;;;;;;;;;;20.10;99.90;;;;;;5014975;28;19928;-70
2022/09/10 11:14:15;;;;;;;;;;;20.50;99.90;;;;;;5014932;28;20015;-69
2022/09/10 11:17:02;;;;;;;;;;;20.70;99.90;;;;;;5015151;28;20267;-69
2022/09/10 11:19:35;;;;;;;;;;;20.80;99.90;;;;;;5014067;28;20434;-69
2022/09/10 11:22:10;;;;;;;;;;;20.40;99.90;;;;;;5022888;28;19952;-69
2022/09/10 11:24:42;;;;;;;;;;;20.30;99.90;;;;;;4994955;28;20395;-70
2022/09/10 11:27:11;;;;;;;;;;;20.20;99.90;;;;;;4995215;28;19957;-69
2022/09/10 11:29:43;;;;;;;;;;;20.50;99.90;;;;;;5011105;28;20422;-69
2022/09/10 11:32:11;;;;;;;;;;;20.70;99.90;;;;;;5010846;28;20644;-69
2022/09/10 11:34:57;;;;;;;;;;;20.80;99.90;;;;;;5011752;28;19930;-69
2022/09/10 11:37:45;;;;;;;;;;;20.70;99.90;;;;;;4994240;28;19929;-69
2022/09/10 11:40:22;;;;;;;;;;;20.80;99.90;;;;;;5011378;28;19921;-69
2022/09/10 11:42:51;;;;;;;;;;;20.80;99.90;;;;;;4977776;28;20387;-69
2022/09/10 11:45:19;;;;;;;;;;;20.80;99.90;;;;;;4994232;28;20290;-69
2022/09/10 11:47:47;;;;;;;;;;;20.80;99.90;;;;;;5011477;28;19975;-69
2022/09/10 11:50:14;;;;;;;;;;;20.60;99.90;;;;;;5013614;28;19925;-69
2022/09/10 11:52:40;;;;;;;;;;;20.70;99.90;;;;;;5013303;28;20004;-69
2022/09/10 11:55:07;;;;;;;;;;;20.60;99.90;;;;;;5013473;28;20011;-69
2022/09/10 11:57:39;;;;;;;;;;;20.90;99.90;;;;;;5013573;28;19925;-70
2022/09/10 12:00:08;;;;;;;;;;;20.80;99.90;;;;;;4997902;28;19932;-69
2022/09/10 12:03:01;;;;;;;;;;;21.00;99.90;;;;;;5014239;28;19925;-69
2022/09/10 12:05:36;;;;;;;;;;;21.10;99.90;;;;;;5032019;28;20028;-70
2022/09/10 12:08:20;;;;;;;;;;;21.30;99.90;;;;;;5010484;28;19932;-67
2022/09/10 12:10:53;;;;;;;;;;;21.50;99.90;;;;;;5014154;28;20022;-70
2022/09/10 12:13:19;;;;;;;;;;;21.00;99.90;;;;;;5012481;28;19930;-70
2022/09/10 12:15:50;;;;;;;;;;;20.70;99.90;;;;;;4999191;28;19932;-69
2022/09/10 12:18:20;;;;;;;;;;;20.40;99.90;;;;;;5014179;28;19925;-69
2022/09/10 12:20:52;;;;;;;;;;;20.50;99.90;;;;;;5014228;28;19921;-69
2022/09/10 12:23:24;;;;;;;;;;;20.50;99.90;;;;;;4997544;28;19933;-69
2022/09/10 12:25:58;;;;;;;;;;;20.80;99.90;;;;;;5013962;28;20040;-70
2022/09/10 12:28:41;;;;;;;;;;;21.00;99.90;;;;;;5013798;28;19929;-70
2022/09/10 12:31:08;;;;;;;;;;;21.10;99.90;;;;;;5010297;28;20015;-71
2022/09/10 12:33:35;;;;;;;;;;;21.20;99.90;;;;;;5006722;28;19929;-71
2022/09/10 12:36:02;;;;;;;;;;;21.30;99.90;;;;;;5002829;28;19968;-71
2022/09/10 12:38:43;;;;;;;;;;;21.50;99.90;;;;;;5030756;28;19921;-70
2022/09/10 12:41:31;;;;;;;;;;;21.70;99.90;;;;;;4989921;28;19987;-71
2022/09/10 12:43:57;;;;;;;;;;;21.90;99.90;;;;;;4993858;28;20022;-71
2022/09/10 12:46:24;;;;;;;;;;;21.90;99.90;;;;;;5018233;28;20007;-72
2022/09/10 12:48:54;;;;;;;;;;;21.70;99.90;;;;;;5030788;28;19929;-71
2022/09/10 12:51:29;;;;;;;;;;;21.20;99.90;;;;;;4987752;28;19925;-71
2022/09/10 12:54:04;;;;;;;;;;;21.20;99.90;;;;;;5017451;28;19975;-71
2022/09/10 12:56:41;;;;;;;;;;;21.40;99.90;;;;;;5017032;28;19987;-71
2022/09/10 12:59:26;;;;;;;;;;;21.50;99.90;;;;;;5016580;28;19921;-71
2022/09/10 13:01:51;;;;;;;;;;;21.50;99.90;;;;;;5033763;28;19925;-71
2022/09/10 13:04:18;;;;;;;;;;;21.60;99.90;;;;;;5015032;28;19983;-71
2022/09/10 13:06:46;;;;;;;;;;;21.60;99.90;;;;;;5016511;28;19921;-71
2022/09/10 13:09:35;;;;;;;;;;;21.80;99.90;;;;;;5016991;28;19952;-71
2022/09/10 13:12:04;;;;;;;;;;;21.30;99.90;;;;;;5024433;28;19921;-70
2022/09/10 13:14:35;;;;;;;;;;;21.30;99.90;;;;;;4998679;28;19921;-70
2022/09/10 13:17:01;;;;;;;;;;;21.40;99.90;;;;;;5017145;28;20393;-71
2022/09/10 13:19:27;;;;;;;;;;;21.50;99.90;;;;;;5008264;28;19975;-71
2022/09/10 13:21:53;;;;;;;;;;;21.50;99.90;;;;;;4997707;28;20502;-71
2022/09/10 13:24:34;;;;;;;;;;;21.40;99.90;;;;;;5015982;28;19978;-70
2022/09/10 13:27:17;;;;;;;;;;;21.10;99.90;;;;;;5015043;28;19921;-71
2022/09/10 13:29:44;;;;;;;;;;;20.70;99.90;;;;;;5014118;28;19960;-71
2022/09/10 13:32:13;;;;;;;;;;;20.70;99.90;;;;;;5017104;28;19956;-71
2022/09/10 13:34:46;;;;;;;;;;;20.70;99.90;;;;;;5016652;28;19925;-71
2022/09/10 13:37:30;;;;;;;;;;;20.60;99.90;;;;;;5013106;28;19925;-71
2022/09/10 13:40:14;;;;;;;;;;;20.80;99.90;;;;;;5015569;28;20267;-71
2022/09/10 13:42:49;;;;;;;;;;;21.00;99.90;;;;;;5016449;28;19961;-71
2022/09/10 13:45:28;;;;;;;;;;;21.20;99.90;;;;;;5015278;28;19928;-71
2022/09/10 13:48:16;;;;;;;;;;;21.10;99.90;;;;;;5016520;28;19927;-71
2022/09/10 13:50:48;;;;;;;;;;;21.10;99.90;;;;;;4996603;28;19921;-71
2022/09/10 13:53:15;;;;;;;;;;;21.10;99.90;;;;;;5001227;28;19925;-70
2022/09/10 13:55:49;;;;;;;;;;;21.20;99.90;;;;;;5025454;28;19924;-71
2022/09/10 13:58:17;;;;;;;;;;;21.40;99.90;;;;;;5011554;28;19921;-70
2022/09/10 14:00:50;;;;;;;;;;;21.70;99.90;;;;;;5002522;28;19991;-71
2022/09/10 14:03:45;;;;;;;;;;;21.80;99.90;;;;;;5004541;28;19929;-71
2022/09/10 14:06:17;;;;;;;;;;;21.70;99.90;;;;;;4999009;28;19927;-71
2022/09/10 14:08:43;;;;;;;;;;;21.30;99.90;;;;;;5001986;28;19925;-71
2022/09/10 14:11:12;;;;;;;;;;;21.30;99.90;;;;;;5003602;28;19953;-71
2022/09/10 14:13:37;;;;;;;;;;;21.00;99.90;;;;;;5003801;28;19929;-71
2022/09/10 14:16:05;;;;;;;;;;;21.10;99.90;;;;;;5009670;28;19932;-71
2022/09/10 14:18:34;;;;;;;;;;;21.30;99.90;;;;;;5014703;28;20366;-71
2022/09/10 14:21:00;;;;;;;;;;;21.50;99.90;;;;;;5028395;28;19925;-71
2022/09/10 14:23:25;;;;;;;;;;;21.60;99.90;;;;;;4996222;28;19986;-71
2022/09/10 14:26:07;;;;;;;;;;;21.90;99.90;;;;;;5012540;28;19922;-71
2022/09/10 14:28:32;;;;;;;;;;;22.20;99.90;;;;;;5013946;28;19921;-71
2022/09/10 14:31:19;;;;;;;;;;;22.40;99.90;;;;;;4986807;28;19932;-71